createdAt,value
2022-08-26T00:00:19.920Z,17.50
2022-08-26T00:03:03.656Z,16.50
2022-08-26T00:05:31.850Z,17.90
2022-08-26T00:07:59.985Z,17.50
2022-08-26T00:10:29.112Z,17.80
2022-08-26T00:12:57.353Z,14.70
2022-08-26T00:15:25.738Z,20.10
2022-08-26T00:17:56.672Z,15.90
2022-08-26T00:20:30.024Z,15.90
2022-08-26T00:22:59.273Z,17.60
2022-08-26T00:25:27.955Z,18.20
2022-08-26T00:27:56.118Z,17.70
2022-08-26T00:30:27.982Z,17.20
2022-08-26T00:32:57.293Z,13.40
2022-08-26T00:35:27.969Z,17.60
2022-08-26T00:37:57.541Z,14.20
2022-08-26T00:40:34.041Z,16.50
2022-08-26T00:43:05.225Z,16.50
2022-08-26T00:45:44.582Z,16.10
2022-08-26T00:48:16.207Z,14.00
2022-08-26T00:50:53.404Z,19.00
2022-08-26T00:53:25.983Z,16.10
2022-08-26T00:56:08.286Z,16.40
2022-08-26T00:58:39.218Z,16.40
2022-08-26T01:01:10.614Z,19.40
2022-08-26T01:03:39.399Z,14.40
2022-08-26T01:06:13.019Z,16.00
2022-08-26T01:08:42.079Z,14.60
2022-08-26T01:11:10.317Z,15.00
2022-08-26T01:13:39.615Z,16.60
2022-08-26T01:16:13.813Z,16.30
2022-08-26T01:18:45.098Z,14.00
2022-08-26T01:21:17.371Z,18.20
2022-08-26T01:23:49.881Z,16.70
2022-08-26T01:26:41.494Z,21.00
2022-08-26T01:29:15.153Z,19.10
2022-08-26T01:31:52.689Z,15.10
2022-08-26T01:34:25.364Z,17.10
2022-08-26T01:37:07.802Z,21.70
2022-08-26T01:39:40.689Z,17.00
2022-08-26T01:42:14.394Z,13.80
2022-08-26T01:44:50.409Z,18.50
2022-08-26T01:47:21.618Z,19.50
2022-08-26T01:49:53.740Z,15.60
2022-08-26T01:52:28.125Z,15.80
2022-08-26T01:54:59.235Z,13.00
2022-08-26T01:57:29.263Z,17.50
2022-08-26T02:00:01.980Z,14.30
2022-08-26T02:02:46.366Z,14.30
2022-08-26T02:05:22.160Z,13.70
2022-08-26T02:07:51.026Z,18.40
2022-08-26T02:10:22.369Z,17.00
2022-08-26T02:12:51.704Z,16.40
2022-08-26T02:15:19.749Z,16.70
2022-08-26T02:17:49.552Z,20.10
2022-08-26T02:20:22.001Z,18.20
2022-08-26T02:22:50.197Z,17.20
2022-08-26T02:25:31.582Z,21.30
2022-08-26T02:28:00.444Z,16.20
2022-08-26T02:30:32.237Z,14.60
2022-08-26T02:33:04.037Z,17.60
2022-08-26T02:35:33.860Z,15.30
2022-08-26T02:38:09.856Z,15.40
2022-08-26T02:40:41.608Z,17.30
2022-08-26T02:43:12.498Z,16.80
2022-08-26T02:45:41.544Z,15.70
2022-08-26T02:48:14.879Z,21.40
2022-08-26T02:50:43.870Z,14.40
2022-08-26T02:53:13.225Z,19.40
2022-08-26T02:55:42.515Z,17.00
2022-08-26T02:58:11.722Z,16.90
2022-08-26T03:00:52.558Z,18.50
2022-08-26T03:03:22.563Z,15.10
2022-08-26T03:05:53.852Z,14.80
2022-08-26T03:08:22.489Z,16.90
2022-08-26T03:10:51.125Z,20.60
2022-08-26T03:13:19.235Z,20.00
2022-08-26T03:15:47.644Z,20.30
2022-08-26T03:18:16.458Z,19.20
2022-08-26T03:20:44.981Z,19.20
2022-08-26T03:23:13.010Z,18.80
2022-08-26T03:25:41.161Z,17.10
2022-08-26T03:28:09.700Z,16.20
2022-08-26T03:30:44.965Z,20.80
2022-08-26T03:33:14.493Z,22.70
2022-08-26T03:35:45.339Z,19.70
2022-08-26T03:38:14.136Z,27.40
2022-08-26T03:40:42.973Z,27.30
2022-08-26T03:43:14.669Z,24.00
2022-08-26T03:45:43.509Z,20.00
2022-08-26T03:48:14.605Z,20.00
2022-08-26T03:50:43.090Z,22.10
2022-08-26T03:53:12.804Z,16.10
2022-08-26T03:55:42.399Z,19.80
2022-08-26T03:58:11.417Z,16.70
2022-08-26T04:00:39.620Z,29.10
2022-08-26T04:03:07.761Z,24.50
2022-08-26T04:05:38.182Z,25.40
2022-08-26T04:08:07.241Z,22.30
2022-08-26T04:10:38.572Z,22.60
2022-08-26T04:13:06.812Z,21.30
2022-08-26T04:15:35.004Z,23.10
2022-08-26T04:18:03.029Z,20.40
2022-08-26T04:20:32.152Z,18.90
2022-08-26T04:23:00.488Z,20.10
2022-08-26T04:25:28.606Z,21.70
2022-08-26T04:27:57.289Z,17.80
2022-08-26T04:30:25.752Z,18.20
2022-08-26T04:32:54.819Z,20.60
2022-08-26T04:35:25.788Z,22.10
2022-08-26T04:37:54.446Z,17.80
2022-08-26T04:40:23.236Z,18.20
2022-08-26T04:42:51.602Z,24.50
2022-08-26T04:45:22.742Z,22.10
2022-08-26T04:47:56.762Z,23.30
2022-08-26T04:50:26.673Z,21.50
2022-08-26T04:52:55.737Z,20.70
2022-08-26T04:55:38.660Z,18.10
2022-08-26T04:58:10.966Z,23.60
2022-08-26T05:00:39.174Z,32.00
2022-08-26T05:03:07.785Z,27.70
2022-08-26T05:05:40.488Z,24.90
2022-08-26T05:08:12.972Z,26.40
2022-08-26T05:10:44.210Z,25.90
2022-08-26T05:13:18.170Z,28.70
2022-08-26T05:15:49.610Z,24.50
2022-08-26T05:18:21.366Z,24.00
2022-08-26T05:20:54.705Z,23.10
2022-08-26T05:23:25.061Z,24.30
2022-08-26T05:25:59.351Z,21.70
2022-08-26T05:28:30.402Z,19.00
2022-08-26T05:30:58.667Z,20.30
2022-08-26T05:33:26.947Z,13.10
2022-08-26T05:35:55.019Z,21.70
2022-08-26T05:38:23.399Z,17.80
2022-08-26T05:40:53.319Z,18.00
2022-08-26T05:43:21.714Z,14.30
2022-08-26T05:45:50.577Z,15.80
2022-08-26T05:48:22.715Z,13.40
2022-08-26T05:50:53.947Z,16.80
2022-08-26T05:53:25.928Z,15.10
2022-08-26T05:55:55.977Z,18.70
2022-08-26T05:58:24.284Z,17.80
2022-08-26T06:01:05.362Z,20.80
2022-08-26T06:03:37.261Z,20.60
2022-08-26T06:06:11.555Z,17.60
2022-08-26T06:08:39.960Z,15.10
2022-08-26T06:11:18.539Z,16.80
2022-08-26T06:13:47.275Z,9.10
2022-08-26T06:16:19.035Z,13.70
2022-08-26T06:18:48.591Z,13.60
2022-08-26T06:21:26.450Z,14.00
2022-08-26T06:24:20.105Z,12.00
2022-08-26T06:26:51.783Z,11.80
2022-08-26T06:29:24.023Z,10.40
2022-08-26T06:31:57.217Z,11.90
2022-08-26T06:34:30.346Z,10.00
2022-08-26T06:37:02.612Z,10.20
2022-08-26T06:39:32.104Z,14.60
2022-08-26T06:42:01.224Z,13.30
2022-08-26T06:44:30.887Z,10.80
2022-08-26T06:47:00.536Z,11.60
2022-08-26T06:49:28.632Z,13.60
2022-08-26T06:51:59.915Z,13.70
2022-08-26T06:54:31.792Z,11.40
2022-08-26T06:57:01.419Z,12.10
2022-08-26T06:59:31.378Z,11.60
2022-08-26T07:01:59.608Z,10.60
2022-08-26T07:04:28.227Z,12.70
2022-08-26T07:06:56.833Z,12.20
2022-08-26T07:09:30.442Z,10.00
2022-08-26T07:11:59.357Z,11.50
2022-08-26T07:14:27.900Z,12.70
2022-08-26T07:16:56.175Z,11.40
2022-08-26T07:19:30.401Z,9.70
2022-08-26T07:22:03.449Z,11.80
2022-08-26T07:24:35.021Z,9.50
2022-08-26T07:27:05.959Z,7.10
2022-08-26T07:29:36.036Z,10.90
2022-08-26T07:32:04.241Z,11.80
2022-08-26T07:34:33.633Z,10.00
2022-08-26T07:37:02.144Z,11.20
2022-08-26T07:39:32.335Z,13.40
2022-08-26T07:42:07.426Z,11.00
2022-08-26T07:44:38.205Z,8.30
2022-08-26T07:47:10.517Z,8.60
2022-08-26T07:49:56.515Z,7.30
2022-08-26T07:52:28.268Z,9.00
2022-08-26T07:54:58.372Z,9.90
2022-08-26T07:57:27.797Z,9.40
2022-08-26T07:59:56.962Z,11.60
2022-08-26T08:02:26.068Z,10.30
2022-08-26T08:04:55.571Z,13.10
2022-08-26T08:07:38.584Z,11.60
2022-08-26T08:10:16.381Z,11.90
2022-08-26T08:12:45.521Z,8.30
2022-08-26T08:15:14.476Z,8.60
2022-08-26T08:17:44.161Z,8.40
2022-08-26T08:20:13.982Z,10.00
2022-08-26T08:22:43.324Z,10.00
2022-08-26T08:25:12.587Z,9.50
2022-08-26T08:27:45.299Z,11.30
2022-08-26T08:30:15.383Z,7.30
2022-08-26T08:32:52.538Z,12.10
2022-08-26T08:35:22.807Z,15.40
2022-08-26T08:37:54.964Z,10.20
2022-08-26T08:40:26.606Z,10.80
2022-08-26T08:43:00.009Z,14.70
2022-08-26T08:45:35.909Z,12.20
2022-08-26T08:48:19.996Z,10.30
2022-08-26T08:50:54.423Z,11.10
2022-08-26T08:53:25.360Z,14.00
2022-08-26T08:55:58.504Z,9.50
2022-08-26T08:58:45.881Z,12.50
2022-08-26T09:01:28.554Z,10.50
2022-08-26T09:04:34.408Z,10.30
2022-08-26T09:07:07.206Z,10.20
2022-08-26T09:09:46.355Z,12.70
2022-08-26T09:12:29.612Z,9.20
2022-08-26T09:15:11.699Z,11.30
2022-08-26T09:18:01.089Z,13.30
2022-08-26T09:20:52.150Z,11.70
2022-08-26T09:23:20.431Z,9.50
2022-08-26T09:25:58.825Z,10.00
2022-08-26T09:28:29.577Z,12.60
2022-08-26T09:31:13.290Z,10.20
2022-08-26T09:33:42.372Z,11.10
2022-08-26T09:36:41.467Z,10.50
2022-08-26T09:39:29.777Z,11.10
2022-08-26T09:42:20.858Z,13.30
2022-08-26T09:44:52.411Z,8.30
2022-08-26T09:47:46.390Z,12.40
2022-08-26T09:50:31.461Z,10.40
2022-08-26T09:53:25.329Z,11.00
2022-08-26T09:56:25.784Z,12.50
2022-08-26T09:58:57.111Z,8.90
2022-08-26T10:01:41.954Z,11.40
2022-08-26T10:04:24.224Z,11.10
2022-08-26T10:06:58.987Z,11.50
2022-08-26T10:09:29.882Z,11.30
2022-08-26T10:12:03.499Z,10.60
2022-08-26T10:14:39.655Z,12.20
2022-08-26T10:17:11.156Z,7.80
2022-08-26T10:19:55.584Z,8.50
2022-08-26T10:22:42.977Z,8.80
2022-08-26T10:25:17.496Z,10.00
2022-08-26T10:27:53.451Z,12.30
2022-08-26T10:30:27.826Z,10.10
2022-08-26T10:33:02.334Z,10.60
2022-08-26T10:35:33.083Z,12.00
2022-08-26T10:38:11.431Z,10.90
2022-08-26T10:41:20.676Z,11.00
2022-08-26T10:43:57.640Z,12.00
2022-08-26T10:46:34.701Z,7.60
2022-08-26T10:49:14.684Z,8.40
2022-08-26T10:52:12.284Z,7.40
2022-08-26T10:54:56.910Z,10.20
2022-08-26T10:57:33.903Z,9.80
2022-08-26T11:00:33.552Z,7.70
2022-08-26T11:03:21.888Z,9.00
2022-08-26T11:06:23.756Z,10.90
2022-08-26T11:09:04.628Z,7.30
2022-08-26T11:11:41.666Z,8.70
2022-08-26T11:14:09.775Z,13.00
2022-08-26T11:16:46.377Z,8.90
2022-08-26T11:19:59.630Z,9.90
2022-08-26T11:22:33.601Z,11.80
2022-08-26T11:25:13.299Z,8.20
2022-08-26T11:27:41.779Z,6.40
2022-08-26T11:30:19.813Z,9.60
2022-08-26T11:32:52.592Z,7.80
2022-08-26T11:35:20.761Z,8.30
2022-08-26T11:37:49.244Z,7.10
2022-08-26T11:40:30.205Z,8.50
2022-08-26T11:43:02.594Z,8.50
2022-08-26T11:45:45.697Z,7.80
2022-08-26T11:48:23.849Z,8.80
2022-08-26T11:51:03.050Z,8.00
2022-08-26T11:53:35.216Z,9.10
2022-08-26T11:56:33.396Z,10.00
2022-08-26T11:59:08.188Z,9.60
2022-08-26T12:01:40.490Z,7.40
2022-08-26T12:04:12.851Z,10.90
2022-08-26T12:06:47.873Z,9.70
2022-08-26T12:09:28.920Z,7.80
2022-08-26T12:12:14.946Z,7.00
2022-08-26T12:14:43.518Z,10.20
2022-08-26T12:17:17.691Z,9.10
2022-08-26T12:19:47.410Z,10.30
2022-08-26T12:22:34.742Z,12.50
2022-08-26T12:25:09.460Z,10.70
2022-08-26T12:27:41.551Z,9.70
2022-08-26T12:30:14.856Z,9.30
2022-08-26T12:33:21.877Z,9.50
2022-08-26T12:35:56.382Z,8.10
2022-08-26T12:38:27.278Z,8.40
2022-08-26T12:40:56.022Z,10.80
2022-08-26T12:43:45.650Z,9.70
2022-08-26T12:46:18.534Z,11.20
2022-08-26T12:48:49.808Z,10.60
2022-08-26T12:51:25.512Z,7.70
2022-08-26T12:53:54.474Z,7.40
2022-08-26T12:56:31.470Z,8.20
2022-08-26T12:59:20.033Z,8.50
2022-08-26T13:01:49.759Z,9.30
2022-08-26T13:04:38.692Z,10.60
2022-08-26T13:07:26.669Z,7.90
2022-08-26T13:09:57.789Z,9.50
2022-08-26T13:12:35.219Z,10.70
2022-08-26T13:15:06.574Z,8.40
2022-08-26T13:17:36.273Z,6.50
2022-08-26T13:20:04.863Z,8.70
2022-08-26T13:22:34.064Z,10.40
2022-08-26T13:25:02.328Z,6.60
2022-08-26T13:27:30.785Z,10.10
2022-08-26T13:30:00.109Z,8.00
2022-08-26T13:32:28.894Z,8.90
2022-08-26T13:34:57.898Z,6.20
2022-08-26T13:37:34.230Z,9.50
2022-08-26T13:40:07.294Z,8.50
2022-08-26T13:42:35.921Z,8.10
2022-08-26T13:45:04.457Z,6.90
2022-08-26T13:47:33.059Z,10.30
2022-08-26T13:50:01.665Z,9.70
2022-08-26T13:52:31.018Z,5.40
2022-08-26T13:55:00.846Z,9.50
2022-08-26T13:57:30.556Z,7.80
2022-08-26T13:59:59.617Z,9.30
2022-08-26T14:02:28.341Z,8.60
2022-08-26T14:04:56.649Z,7.00
2022-08-26T14:07:26.468Z,6.80
2022-08-26T14:09:55.161Z,9.50
2022-08-26T14:12:23.371Z,6.10
2022-08-26T14:14:51.654Z,8.30
2022-08-26T14:17:23.036Z,7.40
2022-08-26T14:19:51.925Z,6.80
2022-08-26T14:22:22.769Z,7.00
2022-08-26T14:24:51.445Z,7.80
2022-08-26T14:27:19.612Z,8.90
2022-08-26T14:29:48.100Z,10.20
2022-08-26T14:32:26.292Z,7.60
2022-08-26T14:34:55.709Z,7.80
2022-08-26T14:37:24.149Z,7.20
2022-08-26T14:39:52.656Z,8.40
2022-08-26T14:42:24.835Z,6.20
2022-08-26T14:44:57.410Z,6.10
2022-08-26T14:47:26.019Z,6.40
2022-08-26T14:49:54.442Z,8.10
2022-08-26T14:52:22.649Z,6.60
2022-08-26T14:54:54.897Z,6.40
2022-08-26T14:57:23.827Z,6.70
2022-08-26T14:59:51.881Z,6.90
2022-08-26T15:02:29.703Z,7.80
2022-08-26T15:05:05.137Z,7.90
2022-08-26T15:07:33.288Z,7.30
2022-08-26T15:10:01.665Z,8.40
2022-08-26T15:12:32.761Z,6.30
2022-08-26T15:15:01.229Z,5.30
2022-08-26T15:17:29.597Z,8.40
2022-08-26T15:19:58.095Z,6.50
2022-08-26T15:22:26.591Z,7.50
2022-08-26T15:24:58.261Z,6.20
2022-08-26T15:27:26.822Z,8.80
2022-08-26T15:29:54.928Z,8.60
2022-08-26T15:32:23.179Z,8.20
2022-08-26T15:34:53.395Z,5.70
2022-08-26T15:37:21.706Z,9.70
2022-08-26T15:39:50.032Z,4.80
2022-08-26T15:42:18.286Z,5.80
2022-08-26T15:44:46.948Z,5.90
2022-08-26T15:47:15.302Z,7.20
2022-08-26T15:49:43.883Z,7.50
2022-08-26T15:52:12.172Z,7.90
2022-08-26T15:54:40.935Z,5.70
2022-08-26T15:57:11.525Z,6.30
2022-08-26T15:59:40.761Z,9.20
2022-08-26T16:02:09.751Z,6.20
2022-08-26T16:04:38.055Z,7.30
2022-08-26T16:07:06.283Z,7.10
2022-08-26T16:09:34.446Z,6.10
2022-08-26T16:12:02.868Z,5.40
2022-08-26T16:14:31.324Z,7.10
2022-08-26T16:16:59.545Z,8.10
2022-08-26T16:19:27.810Z,11.10
2022-08-26T16:21:55.986Z,9.10
2022-08-26T16:24:29.780Z,8.00
2022-08-26T16:26:58.782Z,7.70
2022-08-26T16:29:27.803Z,6.40
2022-08-26T16:31:55.945Z,6.30
2022-08-26T16:34:24.320Z,4.70
2022-08-26T16:36:52.573Z,5.70
2022-08-26T16:39:20.713Z,7.00
2022-08-26T16:41:48.950Z,8.90
2022-08-26T16:44:17.225Z,6.10
2022-08-26T16:46:46.097Z,5.80
2022-08-26T16:49:15.000Z,6.20
2022-08-26T16:51:43.241Z,4.90
2022-08-26T16:54:11.398Z,7.80
2022-08-26T16:56:39.617Z,4.20
2022-08-26T16:59:11.712Z,7.70
2022-08-26T17:01:40.158Z,4.10
2022-08-26T17:04:08.958Z,5.50
2022-08-26T17:06:37.332Z,7.60
2022-08-26T17:09:05.599Z,5.20
2022-08-26T17:11:34.100Z,6.50
2022-08-26T17:14:02.976Z,7.80
2022-08-26T17:16:32.198Z,7.60
2022-08-26T17:19:01.174Z,7.30
2022-08-26T17:21:30.217Z,5.90
2022-08-26T17:23:58.306Z,6.80
2022-08-26T17:26:28.331Z,5.10
2022-08-26T17:28:56.674Z,4.60
2022-08-26T17:31:25.312Z,5.70
2022-08-26T17:33:55.722Z,4.80
2022-08-26T17:36:27.559Z,8.90
2022-08-26T17:38:57.699Z,11.90
2022-08-26T17:41:27.010Z,7.70
2022-08-26T17:43:55.255Z,6.60
2022-08-26T17:46:24.174Z,7.50
2022-08-26T17:48:52.844Z,5.10
2022-08-26T17:51:22.063Z,9.90
2022-08-26T17:53:51.322Z,8.50
2022-08-26T17:56:25.666Z,9.00
2022-08-26T17:58:56.442Z,5.00
2022-08-26T18:01:27.897Z,7.30
2022-08-26T18:04:00.271Z,4.70
2022-08-26T18:06:30.478Z,8.80
2022-08-26T18:08:59.640Z,9.80
2022-08-26T18:11:28.725Z,8.40
2022-08-26T18:13:57.129Z,8.30
2022-08-26T18:16:25.274Z,7.40
2022-08-26T18:18:55.085Z,7.30
2022-08-26T18:21:27.252Z,6.30
2022-08-26T18:23:55.527Z,7.20
2022-08-26T18:26:25.461Z,7.30
2022-08-26T18:28:54.211Z,7.00
2022-08-26T18:31:22.700Z,6.40
2022-08-26T18:33:51.118Z,7.30
2022-08-26T18:36:21.834Z,6.00
2022-08-26T18:38:51.125Z,7.80
2022-08-26T18:41:23.987Z,7.10
2022-08-26T18:43:53.503Z,5.40
2022-08-26T18:46:25.256Z,7.00
2022-08-26T18:48:56.710Z,6.00
2022-08-26T18:51:29.796Z,5.60
2022-08-26T18:54:00.370Z,5.60
2022-08-26T18:56:29.480Z,6.90
2022-08-26T18:58:59.124Z,5.60
2022-08-26T19:01:29.121Z,8.40
2022-08-26T19:03:58.959Z,8.70
2022-08-26T19:06:29.031Z,5.70
2022-08-26T19:08:57.843Z,10.40
2022-08-26T19:11:32.109Z,8.60
2022-08-26T19:14:08.167Z,6.10
2022-08-26T19:16:37.668Z,7.80
2022-08-26T19:19:06.428Z,5.20
2022-08-26T19:21:36.136Z,6.40
2022-08-26T19:24:07.451Z,6.00
2022-08-26T19:26:36.747Z,7.90
2022-08-26T19:29:05.142Z,7.10
2022-08-26T19:31:33.742Z,5.80
2022-08-26T19:34:02.020Z,6.90
2022-08-26T19:36:30.132Z,6.90
2022-08-26T19:38:58.361Z,5.60
2022-08-26T19:41:36.864Z,8.00
2022-08-26T19:44:09.265Z,8.80
2022-08-26T19:49:06.726Z,6.60
2022-08-26T19:51:36.575Z,6.60
2022-08-26T19:54:05.320Z,7.70
2022-08-26T19:56:33.494Z,6.30
2022-08-26T19:59:01.977Z,5.90
2022-08-26T20:01:30.860Z,6.00
2022-08-26T20:03:59.140Z,6.50
2022-08-26T20:06:27.293Z,9.30
2022-08-26T20:08:56.200Z,6.80
2022-08-26T20:11:25.256Z,5.50
2022-08-26T20:13:53.594Z,4.30
2022-08-26T20:16:21.688Z,8.20
2022-08-26T20:19:08.346Z,7.40
2022-08-26T20:21:39.390Z,6.40
2022-08-26T20:24:10.156Z,5.90
2022-08-26T20:26:40.142Z,9.30
2022-08-26T20:29:10.053Z,5.40
2022-08-26T20:31:38.969Z,4.10
2022-08-26T20:34:07.380Z,6.10
2022-08-26T20:36:38.062Z,9.20
2022-08-26T20:39:06.548Z,6.30
2022-08-26T20:41:35.735Z,5.70
2022-08-26T20:44:05.667Z,6.60
2022-08-26T20:46:35.413Z,7.20
2022-08-26T20:49:05.911Z,6.50
2022-08-26T20:51:37.536Z,4.00
2022-08-26T20:54:07.443Z,5.80
2022-08-26T20:56:35.626Z,7.10
2022-08-26T20:59:07.042Z,6.20
2022-08-26T21:01:41.912Z,10.20
2022-08-26T21:04:14.276Z,7.60
2022-08-26T21:06:45.599Z,8.00
2022-08-26T21:09:24.856Z,7.00
2022-08-26T21:11:53.781Z,4.70
2022-08-26T21:14:25.912Z,7.00
2022-08-26T21:16:54.461Z,5.60
2022-08-26T21:19:22.772Z,5.20
2022-08-26T21:21:51.142Z,9.40
2022-08-26T21:24:19.720Z,8.60
2022-08-26T21:26:48.077Z,5.60
2022-08-26T21:29:16.516Z,4.60
2022-08-26T21:31:46.736Z,5.30
2022-08-26T21:34:18.767Z,7.30
2022-08-26T21:36:47.926Z,8.10
2022-08-26T21:39:17.045Z,7.00
2022-08-26T21:41:47.589Z,6.00
2022-08-26T21:44:17.265Z,8.00
2022-08-26T21:46:46.920Z,6.40
2022-08-26T21:49:16.755Z,5.00
2022-08-26T21:51:47.613Z,6.80
2022-08-26T21:54:16.822Z,5.30
2022-08-26T21:56:47.218Z,6.00
2022-08-26T21:59:17.810Z,5.30
2022-08-26T22:01:46.662Z,5.70
2022-08-26T22:04:15.475Z,6.60
2022-08-26T22:06:46.328Z,6.50
2022-08-26T22:09:17.241Z,6.20
2022-08-26T22:11:47.589Z,7.70
2022-08-26T22:14:17.790Z,5.40
2022-08-26T22:16:50.691Z,6.70
2022-08-26T22:19:23.473Z,5.90
2022-08-26T22:21:53.951Z,9.60
2022-08-26T22:24:25.034Z,4.50
2022-08-26T22:26:54.625Z,7.80
2022-08-26T22:29:24.851Z,5.20
2022-08-26T22:31:53.645Z,5.00
2022-08-26T22:34:23.373Z,6.20
2022-08-26T22:36:52.041Z,5.40
2022-08-26T22:39:23.970Z,6.20
2022-08-26T22:41:53.518Z,6.10
2022-08-26T22:44:22.431Z,6.50
2022-08-26T22:46:54.564Z,7.30
2022-08-26T22:49:23.779Z,6.20
2022-08-26T22:51:51.902Z,5.90
2022-08-26T22:54:20.283Z,8.10
2022-08-26T22:56:48.988Z,5.60
2022-08-26T22:59:17.260Z,7.40
2022-08-26T23:01:47.174Z,7.10
2022-08-26T23:04:15.696Z,5.70
2022-08-26T23:06:47.722Z,8.50
2022-08-26T23:09:18.675Z,7.20
2022-08-26T23:11:48.718Z,6.60
2022-08-26T23:14:18.925Z,6.20
2022-08-26T23:16:48.238Z,6.30
2022-08-26T23:19:19.198Z,6.60
2022-08-26T23:21:48.768Z,8.90
2022-08-26T23:24:18.233Z,8.30
2022-08-26T23:26:47.183Z,6.00
2022-08-26T23:29:16.094Z,6.20
2022-08-26T23:31:45.562Z,7.30
2022-08-26T23:34:32.999Z,8.20
2022-08-26T23:37:02.144Z,5.80
2022-08-26T23:39:36.024Z,7.30
2022-08-26T23:42:06.885Z,7.80
2022-08-26T23:44:35.251Z,7.40
2022-08-26T23:47:05.041Z,5.60
2022-08-26T23:49:34.097Z,8.60
2022-08-26T23:52:21.749Z,8.20
2022-08-26T23:54:49.952Z,6.80
2022-08-26T23:57:19.840Z,6.40
2022-08-26T23:59:48.978Z,6.30
